Time;durP1;ratioP1;P1;durP2;ratioP2;P2;SDS_P1;SDS_P2;PMS_P1;PMS_P2;Temp;Humidity;BMP_temperature;BMP_pressure;BME280_temperature;BME280_humidity;BME280_pressure;Samples;Min_cycle;Max_cycle;Signal;HPM_P1;HPM_P2
2024/01/03 00:03:01;;;;;;;20.87;3.10;;;;;10.00;98539.00;;;;9891840;29;20264;-77
2024/01/03 00:08:04;;;;;;;15.63;3.03;;;;;10.00;98541.00;;;;9896174;29;20270;-77
2024/01/03 00:13:33;;;;;;;13.27;2.90;;;;;10.00;98554.00;;;;9893218;29;20231;-77
2024/01/03 00:18:39;;;;;;;13.30;3.20;;;;;10.10;98550.00;;;;9878939;29;20219;-78
2024/01/03 00:23:58;;;;;;;17.93;3.10;;;;;10.10;98560.00;;;;9894611;29;20910;-76
2024/01/03 00:29:00;;;;;;;19.63;3.47;;;;;10.10;98548.00;;;;9893168;29;20223;-77
2024/01/03 00:34:04;;;;;;;14.93;2.73;;;;;10.20;98553.00;;;;9904391;29;20216;-78
2024/01/03 00:39:06;;;;;;;11.03;2.63;;;;;10.10;98552.00;;;;9902686;29;20211;-78
2024/01/03 00:44:07;;;;;;;15.77;3.80;;;;;10.10;98551.00;;;;9896036;29;20290;-79
2024/01/03 00:49:09;;;;;;;10.93;2.37;;;;;10.00;98568.00;;;;9870764;29;20276;-77
2024/01/03 00:54:18;;;;;;;14.17;3.20;;;;;10.10;98566.00;;;;9865396;29;20223;-78
2024/01/03 00:59:20;;;;;;;9.77;2.00;;;;;10.10;98577.00;;;;9901691;29;20243;-78
2024/01/03 01:04:21;;;;;;;11.97;2.67;;;;;10.10;98577.00;;;;9895744;29;20679;-77
2024/01/03 01:09:23;;;;;;;7.37;2.17;;;;;10.00;98587.00;;;;9879465;29;20338;-77
2024/01/03 01:14:24;;;;;;;11.50;1.70;;;;;9.80;98589.00;;;;9878010;29;20247;-75
2024/01/03 01:19:25;;;;;;;7.23;1.80;;;;;9.70;98592.00;;;;9864349;29;20258;-75
2024/01/03 01:24:26;;;;;;;10.57;1.60;;;;;9.70;98602.00;;;;9868505;29;20211;-77
2024/01/03 01:29:28;;;;;;;10.97;1.70;;;;;9.60;98608.00;;;;9904734;29;20786;-74
2024/01/03 01:34:29;;;;;;;10.90;2.93;;;;;9.60;98613.00;;;;9897900;29;20214;-76
2024/01/03 01:39:30;;;;;;;9.67;1.93;;;;;9.70;98618.00;;;;9906858;29;20219;-76
2024/01/03 01:44:31;;;;;;;9.80;2.37;;;;;9.70;98609.00;;;;9888291;29;20747;-76
2024/01/03 01:49:33;;;;;;;12.00;2.10;;;;;9.80;98614.00;;;;9875299;29;20526;-76
2024/01/03 01:54:35;;;;;;;7.27;1.87;;;;;9.70;98609.00;;;;9906571;29;20231;-78
2024/01/03 01:59:36;;;;;;;14.40;2.63;;;;;9.60;98618.00;;;;9886742;29;20302;-75
2024/01/03 02:04:38;;;;;;;16.23;2.70;;;;;9.50;98607.00;;;;9878263;29;20421;-80
2024/01/03 02:09:39;;;;;;;11.63;2.77;;;;;9.40;98606.00;;;;9861202;29;20330;-81
2024/01/03 02:14:41;;;;;;;14.50;2.50;;;;;9.40;98613.00;;;;9859934;29;20223;-81
2024/01/03 02:19:42;;;;;;;7.63;2.07;;;;;9.40;98613.00;;;;9876065;29;20945;-82
2024/01/03 02:24:46;;;;;;;15.30;2.47;;;;;9.40;98624.00;;;;9849823;29;20225;-81
2024/01/03 02:29:47;;;;;;;17.47;2.90;;;;;9.50;98620.00;;;;9862066;29;20250;-81
2024/01/03 02:34:48;;;;;;;13.63;2.33;;;;;9.40;98631.00;;;;9857257;29;20741;-81
2024/01/03 02:39:50;;;;;;;10.60;1.63;;;;;9.40;98621.00;;;;9895061;29;20931;-82
2024/01/03 02:44:51;;;;;;;11.20;2.20;;;;;9.40;98624.00;;;;9905880;29;20239;-82
2024/01/03 02:49:57;;;;;;;16.60;2.87;;;;;9.30;98637.00;;;;9888380;29;20748;-82
2024/01/03 02:54:59;;;;;;;5.70;1.93;;;;;9.20;98631.00;;;;9900723;29;20218;-84
2024/01/03 03:00:00;;;;;;;10.43;1.90;;;;;9.10;98646.00;;;;9865305;29;20239;-84
2024/01/03 03:05:02;;;;;;;14.83;2.47;;;;;9.10;98662.00;;;;9848240;29;20207;-80
2024/01/03 03:10:03;;;;;;;12.57;2.13;;;;;9.00;98668.00;;;;9872018;29;20227;-80
2024/01/03 03:15:05;;;;;;;15.20;3.03;;;;;8.90;98667.00;;;;9866329;29;20215;-78
2024/01/03 03:20:07;;;;;;;11.30;2.23;;;;;8.90;98664.00;;;;9878683;29;20235;-75
2024/01/03 03:25:08;;;;;;;10.47;3.17;;;;;8.80;98692.00;;;;9907171;29;20986;-76
2024/01/03 03:30:10;;;;;;;8.47;2.07;;;;;8.80;98677.00;;;;9884585;29;20765;-76
2024/01/03 03:35:12;;;;;;;14.80;2.70;;;;;8.80;98685.00;;;;9895328;29;20223;-76
2024/01/03 03:40:13;;;;;;;8.73;1.80;;;;;8.80;98664.00;;;;9895451;29;20964;-79
2024/01/03 03:45:14;;;;;;;12.13;2.50;;;;;8.80;98666.00;;;;9882632;29;20254;-77
2024/01/03 03:50:15;;;;;;;9.43;2.33;;;;;8.80;98649.00;;;;9881327;29;20231;-78
2024/01/03 03:55:16;;;;;;;6.63;2.23;;;;;8.80;98653.00;;;;9868220;29;20223;-76
2024/01/03 04:00:18;;;;;;;10.17;2.07;;;;;8.90;98645.00;;;;9880828;29;20297;-77
2024/01/03 04:05:20;;;;;;;7.33;1.97;;;;;8.90;98641.00;;;;9893476;29;20251;-75
2024/01/03 04:10:21;;;;;;;9.47;2.17;;;;;8.90;98635.00;;;;9889894;29;20227;-78
2024/01/03 04:15:24;;;;;;;5.80;1.63;;;;;8.90;98634.00;;;;9893496;29;21089;-76
2024/01/03 04:20:28;;;;;;;16.13;2.20;;;;;8.90;98634.00;;;;9880004;29;20952;-77
2024/01/03 04:25:30;;;;;;;11.53;1.60;;;;;8.90;98655.00;;;;9915765;29;20817;-77
2024/01/03 04:30:31;;;;;;;10.33;1.87;;;;;8.90;98636.00;;;;9882097;29;20311;-80
2024/01/03 04:35:32;;;;;;;12.73;2.27;;;;;8.80;98617.00;;;;9879701;29;20215;-81
2024/01/03 04:40:33;;;;;;;9.67;2.53;;;;;8.80;98625.00;;;;9863428;29;20766;-80
2024/01/03 04:45:35;;;;;;;21.63;2.97;;;;;8.80;98628.00;;;;9880507;29;20250;-80
2024/01/03 04:50:36;;;;;;;6.60;2.00;;;;;8.80;98620.00;;;;9897720;29;20310;-81
2024/01/03 04:55:38;;;;;;;18.03;2.77;;;;;8.90;98588.00;;;;9899378;29;20219;-81
2024/01/03 05:00:39;;;;;;;19.23;3.70;;;;;8.90;98579.00;;;;9894545;29;20720;-81
2024/01/03 05:05:40;;;;;;;19.33;3.30;;;;;9.00;98587.00;;;;9865374;29;20227;-81
2024/01/03 05:10:41;;;;;;;18.10;3.17;;;;;9.00;98563.00;;;;9845713;29;20284;-80
2024/01/03 05:15:43;;;;;;;11.47;2.27;;;;;9.00;98556.00;;;;9861605;29;20227;-80
2024/01/03 05:20:44;;;;;;;18.83;3.83;;;;;9.10;98572.00;;;;9889982;29;20235;-80
2024/01/03 05:25:47;;;;;;;21.23;3.43;;;;;9.10;98560.00;;;;9880232;29;20215;-80
2024/01/03 05:30:48;;;;;;;21.37;3.17;;;;;9.10;98553.00;;;;9878307;29;20300;-81
2024/01/03 05:35:49;;;;;;;21.83;4.27;;;;;9.20;98551.00;;;;9867647;29;20378;-80
2024/01/03 05:40:50;;;;;;;13.67;2.83;;;;;9.20;98557.00;;;;9904878;29;20355;-84
2024/01/03 05:45:52;;;;;;;18.43;3.63;;;;;9.20;98544.00;;;;9902626;29;20216;-82
2024/01/03 05:50:54;;;;;;;22.13;3.83;;;;;9.20;98580.00;;;;9878479;29;20231;-83
2024/01/03 05:55:56;;;;;;;21.73;2.90;;;;;9.20;98607.00;;;;9850448;29;20680;-83
2024/01/03 06:00:57;;;;;;;11.40;2.73;;;;;9.10;98608.00;;;;9869466;29;20210;-84
2024/01/03 06:05:58;;;;;;;18.23;2.37;;;;;9.10;98623.00;;;;9882659;29;20222;-83
2024/01/03 06:10:59;;;;;;;21.20;2.77;;;;;9.10;98643.00;;;;9893865;29;21114;-82
2024/01/03 06:16:01;;;;;;;14.80;2.07;;;;;9.00;98654.00;;;;9892742;29;20520;-81
2024/01/03 06:21:03;;;;;;;12.23;1.50;;;;;8.80;98650.00;;;;9876670;29;20215;-83
2024/01/03 06:26:06;;;;;;;7.03;1.60;;;;;8.70;98654.00;;;;9861812;29;20250;-83
2024/01/03 06:31:07;;;;;;;13.73;2.30;;;;;8.60;98642.00;;;;9850540;29;20623;-83
2024/01/03 06:36:08;;;;;;;8.23;1.80;;;;;8.60;98657.00;;;;9866313;29;20235;-83
2024/01/03 06:41:09;;;;;;;9.63;1.90;;;;;8.60;98662.00;;;;9899831;29;20224;-83
2024/01/03 06:46:10;;;;;;;8.83;2.00;;;;;8.50;98672.00;;;;9882254;29;20309;-83
2024/01/03 06:51:12;;;;;;;9.73;1.63;;;;;8.60;98673.00;;;;9882039;29;20243;-80
2024/01/03 06:56:13;;;;;;;15.53;2.53;;;;;8.70;98666.00;;;;9878837;29;20285;-80
2024/01/03 07:01:14;;;;;;;13.30;2.17;;;;;8.60;98666.00;;;;9892672;29;20239;-80
2024/01/03 07:06:16;;;;;;;8.63;1.83;;;;;8.60;98674.00;;;;9907153;29;20223;-80
2024/01/03 07:11:17;;;;;;;8.10;1.90;;;;;8.60;98675.00;;;;9879380;29;20239;-80
2024/01/03 07:16:19;;;;;;;13.90;2.10;;;;;8.70;98678.00;;;;9877191;29;20283;-80
2024/01/03 07:21:22;;;;;;;13.43;1.83;;;;;8.80;98686.00;;;;9882622;29;20223;-81
2024/01/03 07:26:23;;;;;;;10.63;2.37;;;;;8.80;98698.00;;;;9914311;29;20212;-81
2024/01/03 07:31:25;;;;;;;10.50;2.03;;;;;8.70;98694.00;;;;9878266;29;20239;-81
2024/01/03 07:36:26;;;;;;;11.77;1.90;;;;;8.70;98710.00;;;;9911437;29;20219;-80
2024/01/03 07:41:27;;;;;;;14.73;2.67;;;;;8.60;98697.00;;;;9883139;29;20219;-81
2024/01/03 07:46:29;;;;;;;15.87;2.20;;;;;8.70;98694.00;;;;9906005;29;20594;-80
2024/01/03 07:51:30;;;;;;;17.80;2.40;;;;;8.70;98711.00;;;;9865956;29;20259;-80
2024/01/03 07:56:31;;;;;;;12.17;2.23;;;;;8.70;98716.00;;;;9876792;29;20212;-80
2024/01/03 08:01:32;;;;;;;10.10;2.20;;;;;8.90;98723.00;;;;9882630;29;20253;-80
2024/01/03 08:06:33;;;;;;;17.80;4.40;;;;;9.00;98731.00;;;;9884395;29;20220;-81
2024/01/03 08:11:35;;;;;;;14.33;3.33;;;;;9.00;98729.00;;;;9881507;29;20895;-81
2024/01/03 08:16:36;;;;;;;15.83;3.00;;;;;9.10;98747.00;;;;9914293;29;20971;-81
2024/01/03 08:21:37;;;;;;;16.67;2.80;;;;;9.00;98740.00;;;;9864619;29;20216;-79
2024/01/03 08:26:38;;;;;;;13.87;3.80;;;;;8.80;98745.00;;;;9877079;29;20303;-80
2024/01/03 08:31:40;;;;;;;15.10;3.03;;;;;8.80;98744.00;;;;9898060;29;20221;-81
2024/01/03 08:36:43;;;;;;;19.40;3.00;;;;;8.80;98766.00;;;;9892659;29;20242;-79
2024/01/03 08:41:47;;;;;;;23.80;4.50;;;;;8.90;98763.00;;;;9896667;29;20235;-81
2024/01/03 08:46:48;;;;;;;20.70;3.43;;;;;8.90;98775.00;;;;9879444;29;20751;-80
2024/01/03 08:51:49;;;;;;;18.73;3.97;;;;;9.00;98775.00;;;;9891733;29;20267;-79
2024/01/03 08:56:51;;;;;;;18.80;2.93;;;;;9.20;98783.00;;;;9862935;29;20239;-81
2024/01/03 09:01:56;;;;;;;17.67;3.60;;;;;9.10;98772.00;;;;9857693;29;20320;-80
2024/01/03 09:06:57;;;;;;;20.10;4.97;;;;;9.30;98772.00;;;;9873011;29;20236;-81
2024/01/03 09:11:58;;;;;;;26.10;3.73;;;;;9.40;98772.00;;;;9850132;29;20243;-79
2024/01/03 09:17:00;;;;;;;20.30;4.27;;;;;9.30;98781.00;;;;9867110;29;20321;-80
2024/01/03 09:22:01;;;;;;;17.67;3.50;;;;;9.20;98794.00;;;;9877904;29;20231;-79
2024/01/03 09:27:04;;;;;;;12.43;3.10;;;;;9.50;98786.00;;;;9834223;29;20242;-80
2024/01/03 09:32:07;;;;;;;20.47;3.23;;;;;9.60;98798.00;;;;9876613;29;20232;-82
2024/01/03 09:37:09;;;;;;;17.67;3.37;;;;;9.50;98802.00;;;;9876303;29;20238;-81
2024/01/03 09:42:11;;;;;;;14.60;2.80;;;;;9.40;98795.00;;;;9853098;29;20245;-80
2024/01/03 09:47:12;;;;;;;11.97;2.77;;;;;9.30;98797.00;;;;9850482;29;20252;-81
2024/01/03 09:52:14;;;;;;;18.90;3.17;;;;;9.30;98807.00;;;;9870483;29;20311;-80
2024/01/03 09:57:20;;;;;;;20.70;2.87;;;;;9.40;98808.00;;;;9852725;29;20238;-79
2024/01/03 10:02:26;;;;;;;15.73;2.53;;;;;9.50;98813.00;;;;9880198;29;20273;-80
2024/01/03 10:07:35;;;;;;;14.40;2.73;;;;;9.50;98828.00;;;;9875987;29;20223;-80
2024/01/03 10:12:36;;;;;;;12.80;2.70;;;;;9.60;98831.00;;;;9880750;29;20234;-80
2024/01/03 10:17:38;;;;;;;13.10;2.83;;;;;9.30;98822.00;;;;9872002;29;20302;-80
2024/01/03 10:22:39;;;;;;;16.67;3.53;;;;;9.70;98806.00;;;;9877618;29;20239;-77
2024/01/03 10:27:40;;;;;;;17.77;3.53;;;;;10.40;98823.00;;;;9892933;29;20223;-78
2024/01/03 10:32:41;;;;;;;18.30;3.73;;;;;11.00;98809.00;;;;9879017;29;20238;-79
2024/01/03 10:37:43;;;;;;;17.77;3.20;;;;;10.90;98810.00;;;;9878129;29;20611;-81
2024/01/03 10:42:47;;;;;;;17.43;3.47;;;;;10.80;98792.00;;;;9886160;29;20231;-78
2024/01/03 10:47:49;;;;;;;20.13;3.27;;;;;11.30;98800.00;;;;9860297;29;20224;-79
2024/01/03 10:52:55;;;;;;;11.57;3.03;;;;;11.60;98791.00;;;;9850523;29;20234;-82
2024/01/03 10:57:58;;;;;;;18.63;3.47;;;;;11.20;98781.00;;;;9862704;29;20254;-80
2024/01/03 11:03:31;;;;;;;15.80;2.93;;;;;10.90;98767.00;;;;9873042;29;20215;-80
2024/01/03 11:08:52;;;;;;;11.73;2.43;;;;;10.70;98759.00;;;;9866058;29;20913;-78
2024/01/03 11:13:53;;;;;;;16.27;3.07;;;;;10.90;98757.00;;;;9858154;29;20215;-79
2024/01/03 11:18:55;;;;;;;14.23;3.97;;;;;11.40;98776.00;;;;9887064;29;20306;-78
2024/01/03 11:23:57;;;;;;;20.27;3.83;;;;;11.10;98763.00;;;;9863379;29;21914;-78
2024/01/03 11:28:58;;;;;;;18.73;3.63;;;;;11.90;98768.00;;;;9848264;29;20326;-81
2024/01/03 11:33:59;;;;;;;19.07;3.30;;;;;11.70;98764.00;;;;9890922;29;20381;-81
2024/01/03 11:39:03;;;;;;;18.43;3.90;;;;;11.70;98764.00;;;;9908566;29;20216;-81
2024/01/03 11:44:05;;;;;;;14.33;2.97;;;;;11.70;98751.00;;;;9850688;29;20303;-82
2024/01/03 11:49:09;;;;;;;9.97;3.20;;;;;11.30;98744.00;;;;9878905;29;20238;-82
2024/01/03 11:54:12;;;;;;;11.80;2.57;;;;;11.30;98735.00;;;;9904946;29;20216;-83
2024/01/03 11:59:19;;;;;;;12.27;2.50;;;;;11.30;98740.00;;;;9900591;29;20280;-81
2024/01/03 12:04:20;;;;;;;10.07;2.30;;;;;11.20;98747.00;;;;9883054;29;20224;-82
2024/01/03 12:09:22;;;;;;;14.37;2.80;;;;;10.90;98729.00;;;;9863380;29;20287;-80
2024/01/03 12:14:23;;;;;;;12.33;2.33;;;;;10.60;98739.00;;;;9894938;29;20875;-81
2024/01/03 12:19:30;;;;;;;9.37;2.40;;;;;10.30;98748.00;;;;9898665;29;20224;-83
2024/01/03 12:24:43;;;;;;;10.30;2.17;;;;;10.10;98720.00;;;;9876761;29;20247;-82
2024/01/03 12:29:44;;;;;;;9.30;1.87;;;;;10.00;98712.00;;;;9883673;29;20247;-82
2024/01/03 12:34:47;;;;;;;5.83;1.53;;;;;10.00;98712.00;;;;9864394;29;20219;-81
2024/01/03 12:39:49;;;;;;;2.90;1.00;;;;;9.90;98718.00;;;;9869727;29;20234;-85
2024/01/03 12:44:50;;;;;;;5.97;1.57;;;;;9.90;98716.00;;;;9866108;29;20219;-84
2024/01/03 12:49:53;;;;;;;10.57;1.93;;;;;10.30;98700.00;;;;9883342;29;20806;-83
2024/01/03 12:54:54;;;;;;;16.30;2.87;;;;;10.20;98671.00;;;;9897682;29;20900;-84
2024/01/03 12:59:56;;;;;;;9.20;2.83;;;;;10.00;98671.00;;;;9869843;29;20266;-85
2024/01/03 13:04:57;;;;;;;10.60;2.37;;;;;9.90;98650.00;;;;9850397;29;20215;-84
2024/01/03 13:09:58;;;;;;;17.23;3.50;;;;;10.00;98654.00;;;;9883875;29;21622;-84
2024/01/03 13:15:01;;;;;;;16.40;3.33;;;;;10.30;98634.00;;;;9854216;29;20242;-84
2024/01/03 13:20:03;;;;;;;14.60;3.00;;;;;10.70;98625.00;;;;9884426;29;20299;-84
2024/01/03 13:25:05;;;;;;;17.57;4.10;;;;;11.20;98644.00;;;;9852121;29;20215;-84
2024/01/03 13:30:07;;;;;;;15.60;3.53;;;;;11.30;98638.00;;;;9890827;29;20231;-83
2024/01/03 13:35:09;;;;;;;17.17;3.53;;;;;11.30;98640.00;;;;9898794;29;20299;-83
2024/01/03 13:40:11;;;;;;;18.00;3.53;;;;;11.20;98627.00;;;;9855081;29;20243;-83
2024/01/03 13:45:12;;;;;;;15.47;3.40;;;;;10.90;98624.00;;;;9868642;29;20211;-84
2024/01/03 13:50:13;;;;;;;15.37;3.87;;;;;10.60;98609.00;;;;9895026;29;21257;-83
2024/01/03 13:55:14;;;;;;;16.17;3.37;;;;;10.40;98609.00;;;;9911597;29;20220;-85
2024/01/03 14:00:19;;;;;;;16.27;3.60;;;;;10.20;98598.00;;;;9908705;29;20219;-82
2024/01/03 14:05:29;;;;;;;17.07;3.37;;;;;10.10;98609.00;;;;9882264;29;20215;-83
2024/01/03 14:10:31;;;;;;;21.53;3.50;;;;;10.30;98597.00;;;;9880092;29;20592;-83
2024/01/03 14:15:32;;;;;;;14.93;3.23;;;;;10.40;98600.00;;;;9866572;29;20215;-84
2024/01/03 14:20:34;;;;;;;9.40;3.00;;;;;10.50;98594.00;;;;9882615;29;20215;-83
2024/01/03 14:25:39;;;;;;;14.40;3.60;;;;;10.50;98592.00;;;;9879575;29;20246;-81
2024/01/03 14:30:41;;;;;;;15.03;3.03;;;;;10.60;98594.00;;;;9883968;29;20228;-83
2024/01/03 14:35:42;;;;;;;10.90;2.53;;;;;10.70;98586.00;;;;9866954;29;20228;-83
2024/01/03 14:40:46;;;;;;;14.00;2.40;;;;;10.60;98589.00;;;;9869410;29;20214;-82
2024/01/03 14:45:47;;;;;;;17.30;2.83;;;;;10.60;98584.00;;;;9898636;29;20223;-83
2024/01/03 14:50:49;;;;;;;16.27;2.70;;;;;10.50;98570.00;;;;9879306;29;20231;-82
2024/01/03 14:55:50;;;;;;;13.67;3.50;;;;;10.30;98574.00;;;;9845726;29;20223;-82
2024/01/03 15:00:51;;;;;;;14.10;2.90;;;;;10.20;98570.00;;;;9881333;29;20235;-79
2024/01/03 15:05:53;;;;;;;12.77;2.67;;;;;10.20;98562.00;;;;9866317;29;20219;-80
2024/01/03 15:10:55;;;;;;;12.50;2.73;;;;;10.20;98576.00;;;;9896416;29;20655;-81
2024/01/03 15:15:57;;;;;;;13.10;3.20;;;;;10.10;98578.00;;;;9885493;29;20314;-81
2024/01/03 15:21:02;;;;;;;9.53;2.50;;;;;10.10;98572.00;;;;9879755;29;20318;-82
2024/01/03 15:26:03;;;;;;;15.07;3.03;;;;;9.80;98577.00;;;;9903106;29;20310;-82
2024/01/03 15:31:04;;;;;;;14.33;2.57;;;;;9.60;98573.00;;;;9848212;29;20242;-80
2024/01/03 15:36:06;;;;;;;12.50;2.93;;;;;9.50;98585.00;;;;9895587;29;20212;-82
2024/01/03 15:41:08;;;;;;;11.07;2.40;;;;;9.50;98579.00;;;;9882087;29;20950;-81
2024/01/03 15:46:09;;;;;;;13.70;3.37;;;;;9.40;98579.00;;;;9879125;29;20246;-80
2024/01/03 15:51:10;;;;;;;18.77;3.73;;;;;9.50;98573.00;;;;9884110;29;20254;-81
2024/01/03 15:56:12;;;;;;;13.63;3.00;;;;;9.40;98573.00;;;;9862634;29;20223;-81
2024/01/03 16:01:13;;;;;;;14.17;2.63;;;;;9.30;98571.00;;;;9904596;29;20239;-82
2024/01/03 16:06:14;;;;;;;13.90;3.07;;;;;9.30;98575.00;;;;9863246;29;20324;-80
2024/01/03 16:11:16;;;;;;;19.07;3.20;;;;;9.20;98579.00;;;;9875179;29;20235;-83
2024/01/03 16:16:17;;;;;;;19.00;3.80;;;;;9.20;98595.00;;;;9881396;29;20314;-83
2024/01/03 16:21:21;;;;;;;7.17;1.77;;;;;9.10;98594.00;;;;9858045;29;20684;-82
2024/01/03 16:26:22;;;;;;;8.30;1.53;;;;;9.10;98590.00;;;;9887234;29;20226;-85
2024/01/03 16:31:24;;;;;;;6.77;1.70;;;;;9.00;98595.00;;;;9890564;29;20287;-87
2024/01/03 16:36:25;;;;;;;11.43;2.03;;;;;8.90;98594.00;;;;9886144;29;20239;-84
2024/01/03 16:41:26;;;;;;;8.27;1.80;;;;;8.80;98604.00;;;;9900799;29;20207;-85
2024/01/03 16:46:28;;;;;;;11.67;2.23;;;;;8.80;98597.00;;;;9894424;29;20222;-84
2024/01/03 16:51:29;;;;;;;13.43;2.20;;;;;8.70;98606.00;;;;9893324;29;20509;-85
2024/01/03 16:56:30;;;;;;;9.77;2.80;;;;;8.60;98605.00;;;;9879624;29;20261;-86
2024/01/03 17:01:32;;;;;;;10.53;2.20;;;;;8.60;98609.00;;;;9879413;29;20235;-85
2024/01/03 17:06:39;;;;;;;10.70;2.13;;;;;8.60;98615.00;;;;9907982;29;20224;-84
2024/01/03 17:11:40;;;;;;;7.90;2.70;;;;;8.60;98616.00;;;;9864738;29;20604;-85
2024/01/03 17:16:42;;;;;;;8.20;2.20;;;;;8.60;98613.00;;;;9868433;29;20250;-85
2024/01/03 17:21:43;;;;;;;6.33;1.60;;;;;8.70;98621.00;;;;9847261;29;20219;-81
2024/01/03 17:26:44;;;;;;;8.80;1.90;;;;;8.70;98628.00;;;;9857982;29;21382;-82
2024/01/03 17:31:46;;;;;;;6.23;2.07;;;;;8.70;98630.00;;;;9888529;29;20292;-80
2024/01/03 17:36:48;;;;;;;7.67;1.37;;;;;8.80;98632.00;;;;9866722;29;20251;-80
2024/01/03 17:41:52;;;;;;;7.30;1.90;;;;;8.70;98640.00;;;;9889676;29;21357;-80
2024/01/03 17:46:54;;;;;;;7.93;2.17;;;;;8.70;98626.00;;;;9843295;29;20300;-81
2024/01/03 17:51:56;;;;;;;7.03;1.87;;;;;8.70;98628.00;;;;9863963;29;20314;-79
2024/01/03 17:56:58;;;;;;;8.17;1.93;;;;;8.60;98630.00;;;;9855847;29;20227;-81
2024/01/03 18:02:00;;;;;;;9.50;2.10;;;;;8.60;98636.00;;;;9885080;29;20688;-81
2024/01/03 18:07:01;;;;;;;9.57;2.00;;;;;8.70;98647.00;;;;9871529;29;20218;-79
2024/01/03 18:12:03;;;;;;;6.50;1.60;;;;;8.80;98657.00;;;;9877379;29;20235;-81
2024/01/03 18:17:06;;;;;;;6.53;2.03;;;;;8.90;98656.00;;;;9874927;29;20218;-81
2024/01/03 18:22:08;;;;;;;11.23;2.20;;;;;8.90;98660.00;;;;9895073;29;20249;-81
2024/01/03 18:27:13;;;;;;;12.93;3.27;;;;;8.90;98674.00;;;;9872704;29;20842;-81
2024/01/03 18:32:15;;;;;;;10.97;2.53;;;;;8.90;98680.00;;;;9884909;29;20231;-81
2024/01/03 18:37:16;;;;;;;13.27;2.47;;;;;9.00;98684.00;;;;9862322;29;20647;-80
2024/01/03 18:42:17;;;;;;;14.27;2.90;;;;;9.00;98697.00;;;;9884967;29;20215;-79
2024/01/03 18:47:18;;;;;;;11.13;3.03;;;;;9.00;98705.00;;;;9874854;29;20763;-80
2024/01/03 18:52:20;;;;;;;14.73;3.50;;;;;9.10;98711.00;;;;9842462;29;20243;-83
2024/01/03 18:57:21;;;;;;;11.47;3.73;;;;;9.10;98709.00;;;;9858898;29;20221;-83
2024/01/03 19:02:23;;;;;;;9.17;2.73;;;;;9.10;98716.00;;;;9872271;29;20262;-80
2024/01/03 19:07:24;;;;;;;11.27;2.80;;;;;9.10;98730.00;;;;9865572;29;20220;-82
2024/01/03 19:12:26;;;;;;;15.20;3.27;;;;;9.10;98726.00;;;;9858960;29;20243;-83
2024/01/03 19:17:27;;;;;;;14.20;2.83;;;;;9.20;98746.00;;;;9845102;29;20261;-85
2024/01/03 19:22:30;;;;;;;14.57;3.90;;;;;9.20;98758.00;;;;9867815;29;20227;-84
2024/01/03 19:27:31;;;;;;;17.13;3.40;;;;;9.20;98758.00;;;;9866034;29;20313;-83
2024/01/03 19:32:33;;;;;;;14.57;3.13;;;;;9.10;98747.00;;;;9901057;29;20239;-83
2024/01/03 19:37:34;;;;;;;14.57;2.70;;;;;9.10;98764.00;;;;9868118;29;20227;-82
2024/01/03 19:42:36;;;;;;;17.97;3.57;;;;;9.10;98778.00;;;;9875044;29;20230;-84
2024/01/03 19:47:37;;;;;;;25.93;3.97;;;;;9.10;98793.00;;;;9857904;29;20223;-82
2024/01/03 19:52:39;;;;;;;19.43;3.50;;;;;9.10;98800.00;;;;9870373;29;20914;-82
2024/01/03 19:57:40;;;;;;;17.73;3.57;;;;;9.10;98802.00;;;;9875792;29;20228;-82
2024/01/03 20:02:42;;;;;;;13.13;3.30;;;;;9.20;98791.00;;;;9866612;29;20226;-84
2024/01/03 20:07:43;;;;;;;16.03;3.73;;;;;9.10;98798.00;;;;9877951;29;20281;-82
2024/01/03 20:12:44;;;;;;;18.37;3.23;;;;;9.20;98815.00;;;;9910347;29;20666;-83
2024/01/03 20:17:45;;;;;;;15.33;3.27;;;;;9.10;98814.00;;;;9888013;29;20203;-84
2024/01/03 20:22:47;;;;;;;19.70;3.10;;;;;8.90;98829.00;;;;9880344;29;20255;-83
2024/01/03 20:27:48;;;;;;;22.13;4.07;;;;;8.80;98826.00;;;;9886121;29;20215;-83
2024/01/03 20:32:49;;;;;;;15.40;3.07;;;;;8.80;98832.00;;;;9846253;29;20231;-84
2024/01/03 20:37:51;;;;;;;9.83;2.90;;;;;8.70;98843.00;;;;9846740;29;20226;-84
2024/01/03 20:42:53;;;;;;;11.07;2.00;;;;;8.60;98849.00;;;;9876082;29;20238;-83
2024/01/03 20:47:54;;;;;;;8.63;1.80;;;;;8.60;98862.00;;;;9889929;29;20583;-85
2024/01/03 20:52:55;;;;;;;12.23;2.23;;;;;8.50;98862.00;;;;9873683;29;20227;-82
2024/01/03 20:57:57;;;;;;;4.77;1.40;;;;;8.40;98871.00;;;;9907732;29;20231;-83
2024/01/03 21:02:58;;;;;;;9.37;2.00;;;;;8.40;98880.00;;;;9861734;29;20204;-82
2024/01/03 21:07:59;;;;;;;12.43;2.53;;;;;8.50;98898.00;;;;9864807;29;20926;-82
2024/01/03 21:13:02;;;;;;;10.70;2.60;;;;;8.60;98896.00;;;;9894323;29;20231;-82
2024/01/03 21:18:03;;;;;;;11.90;2.93;;;;;8.70;98911.00;;;;9873069;29;20219;-81
2024/01/03 21:23:05;;;;;;;13.73;3.43;;;;;8.80;98906.00;;;;9875514;29;20819;-82
2024/01/03 21:28:06;;;;;;;11.30;2.50;;;;;8.90;98915.00;;;;9859202;29;20307;-83
2024/01/03 21:33:07;;;;;;;14.47;4.03;;;;;9.00;98914.00;;;;9874571;29;20314;-83
2024/01/03 21:38:09;;;;;;;14.77;2.87;;;;;9.10;98924.00;;;;9888334;29;20222;-81
2024/01/03 21:43:10;;;;;;;13.10;2.80;;;;;9.10;98910.00;;;;9867328;29;20219;-82
2024/01/03 21:48:12;;;;;;;15.80;3.17;;;;;9.10;98940.00;;;;9859455;29;20582;-82
2024/01/03 21:53:13;;;;;;;13.67;3.77;;;;;9.00;98952.00;;;;9882547;29;20234;-83
2024/01/03 21:58:14;;;;;;;14.77;3.20;;;;;8.80;98966.00;;;;9849089;29;20306;-83
2024/01/03 22:03:15;;;;;;;18.43;3.10;;;;;8.70;98969.00;;;;9869741;29;20223;-86
2024/01/03 22:08:16;;;;;;;17.50;2.90;;;;;8.70;98984.00;;;;9884923;29;20207;-86
2024/01/03 22:13:19;;;;;;;16.97;3.00;;;;;8.70;98994.00;;;;9862629;29;20230;-88
2024/01/03 22:18:20;;;;;;;18.27;3.43;;;;;8.60;98990.00;;;;9892975;29;20222;-87
2024/01/03 22:23:22;;;;;;;11.47;2.73;;;;;8.50;99005.00;;;;9895299;29;20231;-88
2024/01/03 22:28:25;;;;;;;13.83;2.50;;;;;8.40;99022.00;;;;9900515;29;20304;-88
2024/01/03 22:33:26;;;;;;;9.90;2.70;;;;;8.40;99028.00;;;;9857961;29;20244;-88
2024/01/03 22:38:27;;;;;;;10.37;2.87;;;;;8.30;99035.00;;;;9883997;29;20916;-87
2024/01/03 22:43:29;;;;;;;10.90;2.70;;;;;8.20;99040.00;;;;9881538;29;20683;-88
2024/01/03 22:48:30;;;;;;;8.90;1.70;;;;;8.10;99063.00;;;;9869816;29;20229;-88
2024/01/03 22:53:32;;;;;;;9.70;1.90;;;;;8.10;99075.00;;;;9863034;29;20699;-88
2024/01/03 22:58:33;;;;;;;10.00;2.10;;;;;8.00;99082.00;;;;9878310;29;20235;-88
2024/01/03 23:03:34;;;;;;;5.90;1.70;;;;;8.00;99086.00;;;;9864205;29;20223;-88
2024/01/03 23:08:36;;;;;;;6.37;1.53;;;;;8.00;99097.00;;;;9855332;29;20220;-87
2024/01/03 23:13:37;;;;;;;4.43;1.60;;;;;8.10;99109.00;;;;9872679;29;20216;-82
2024/01/03 23:18:38;;;;;;;4.50;1.60;;;;;8.10;99116.00;;;;9873549;29;20299;-81
2024/01/03 23:23:40;;;;;;;5.83;2.00;;;;;8.10;99126.00;;;;9859790;29;20246;-82
2024/01/03 23:28:46;;;;;;;7.53;2.33;;;;;8.20;99135.00;;;;9864934;29;20224;-82
2024/01/03 23:33:48;;;;;;;8.67;2.30;;;;;8.20;99148.00;;;;9882214;29;20244;-84
2024/01/03 23:38:50;;;;;;;10.60;3.27;;;;;8.30;99157.00;;;;9877896;29;20257;-82
2024/01/03 23:43:52;;;;;;;12.23;3.40;;;;;8.40;99155.00;;;;9870216;29;20333;-82
2024/01/03 23:48:53;;;;;;;9.40;3.37;;;;;8.40;99162.00;;;;9836398;29;20223;-84
2024/01/03 23:53:54;;;;;;;20.63;3.80;;;;;8.40;99169.00;;;;9846659;29;20237;-85
2024/01/03 23:58:56;;;;;;;20.13;4.00;;;;;8.40;99173.00;;;;9866418;29;20223;-84
